Ballonweer?

Available data for EHGG from the past 2 hours
GRONINGEN/EELDE
Metar
EHGG 181625Z AUTO 24011KT 210V270 9999 SCT029 BKN032 OVC038 20/14 Q1020 NOSIG

16:25 UTC

Wind: 240° 11kt

Visibility: 9999 m

Sky: SCT 2900 ft

Temp: 20 deg C / 68 deg F

Dewpoint: 14 deg C / 57.2 deg F

Pressure: 1020 hPa

TAF
TAF EHGG 181108Z 1812/1918 23013KT 9999 SCT030 BECMG 1818/1821 20005KT PROB40 1900/1906 5000 BR PROB30 1905/1908 BKN008 BECMG 1907/1909 23010KT

Buienradar (tot 2 uur vooruit)

 

KNMI weerbulletin kleine luchtvaart

Klik hier om het weerbulletin te openen in een nieuw tabblad.